createdAt,value
2017-01-15T00:00:35.975Z,20.44
2017-01-15T00:01:36.382Z,20.44
2017-01-15T00:02:36.406Z,20.73
2017-01-15T00:03:36.396Z,20.64
2017-01-15T00:04:36.404Z,20.44
2017-01-15T00:05:37.066Z,20.64
2017-01-15T00:06:36.076Z,20.64
2017-01-15T00:07:36.028Z,20.64
2017-01-15T00:08:36.433Z,20.73
2017-01-15T00:09:36.490Z,20.64
2017-01-15T00:10:36.452Z,20.73
2017-01-15T00:11:36.460Z,20.64
2017-01-15T00:12:36.070Z,20.73
2017-01-15T00:13:36.470Z,20.44
2017-01-15T00:14:36.482Z,20.54
2017-01-15T00:15:36.587Z,20.34
2017-01-15T00:16:37.145Z,20.34
2017-01-15T00:17:36.105Z,20.44
2017-01-15T00:18:36.161Z,20.62
2017-01-15T00:19:36.519Z,20.34
2017-01-15T00:20:36.430Z,20.83
2017-01-15T00:21:36.631Z,20.54
2017-01-15T00:22:36.142Z,20.54
2017-01-15T00:23:36.596Z,20.53
2017-01-15T00:24:36.206Z,20.34
2017-01-15T00:25:36.662Z,20.43
2017-01-15T00:26:36.173Z,20.54
2017-01-15T00:27:37.601Z,20.34
2017-01-15T00:28:36.634Z,20.34
2017-01-15T00:29:36.595Z,20.34
2017-01-15T00:30:36.651Z,20.64
2017-01-15T00:31:36.606Z,20.73
2017-01-15T00:32:36.714Z,20.73
2017-01-15T00:33:36.621Z,20.73
2017-01-15T00:34:36.628Z,20.43
2017-01-15T00:35:36.636Z,20.73
2017-01-15T00:36:36.248Z,20.53
2017-01-15T00:37:36.702Z,20.25
2017-01-15T00:38:36.261Z,20.34
2017-01-15T00:39:36.321Z,20.64
2017-01-15T00:40:36.327Z,20.64
2017-01-15T00:41:36.286Z,20.53
2017-01-15T00:42:36.342Z,20.73
2017-01-15T00:43:36.301Z,20.34
2017-01-15T00:44:36.306Z,20.43
2017-01-15T00:45:36.418Z,20.43
2017-01-15T00:46:36.817Z,20.73
2017-01-15T00:47:37.177Z,20.64
2017-01-15T00:48:36.390Z,20.54
2017-01-15T00:49:36.739Z,20.62
2017-01-15T00:50:36.747Z,20.54
2017-01-15T00:51:36.754Z,20.44
2017-01-15T00:52:36.816Z,20.72
2017-01-15T00:53:36.871Z,20.64
2017-01-15T00:54:36.877Z,20.53
2017-01-15T00:55:36.389Z,20.73
2017-01-15T00:56:36.397Z,20.44
2017-01-15T00:57:36.453Z,20.54
2017-01-15T00:58:37.511Z,20.73
2017-01-15T00:59:36.418Z,20.53
2017-01-15T01:00:36.822Z,20.25
2017-01-15T01:01:36.433Z,20.14
2017-01-15T01:02:36.440Z,20.34
2017-01-15T01:03:36.516Z,20.25
2017-01-15T01:04:36.506Z,20.34
2017-01-15T01:05:36.911Z,20.44
2017-01-15T01:06:36.472Z,20.25
2017-01-15T01:07:36.875Z,20.25
2017-01-15T01:08:36.879Z,20.24
2017-01-15T01:09:37.839Z,20.34
2017-01-15T01:10:36.894Z,20.54
2017-01-15T01:11:37.004Z,20.44
2017-01-15T01:12:36.516Z,20.25
2017-01-15T01:13:51.402Z,20.34
2017-01-15T01:14:36.975Z,20.25
2017-01-15T01:15:36.933Z,20.15
2017-01-15T01:16:36.991Z,20.54
2017-01-15T01:17:36.999Z,20.44
2017-01-15T01:18:36.609Z,20.34
2017-01-15T01:19:36.962Z,20.44
2017-01-15T01:20:37.921Z,20.24
2017-01-15T01:21:36.980Z,20.43
2017-01-15T01:22:37.134Z,20.44
2017-01-15T01:23:36.601Z,20.34
2017-01-15T01:24:36.606Z,20.43
2017-01-15T01:25:37.056Z,20.43
2017-01-15T01:26:37.015Z,20.34
2017-01-15T01:27:36.675Z,20.34
2017-01-15T01:28:37.082Z,20.34
2017-01-15T01:29:37.040Z,20.25
2017-01-15T01:30:37.347Z,20.43
2017-01-15T01:31:38.105Z,20.44
2017-01-15T01:32:36.667Z,20.44
2017-01-15T01:33:37.422Z,20.44
2017-01-15T01:34:36.781Z,20.44
2017-01-15T01:35:37.133Z,20.15
2017-01-15T01:36:36.692Z,20.25
2017-01-15T01:37:37.097Z,20.34
2017-01-15T01:38:36.759Z,20.34
2017-01-15T01:39:36.716Z,20.34
2017-01-15T01:40:36.775Z,20.43
2017-01-15T01:41:36.733Z,20.25
2017-01-15T01:42:37.841Z,20.25
2017-01-15T01:43:37.143Z,20.44
2017-01-15T01:44:37.402Z,20.54
2017-01-15T01:45:37.161Z,20.54
2017-01-15T01:46:36.774Z,20.44
2017-01-15T01:47:36.836Z,20.44
2017-01-15T01:48:37.232Z,20.44
2017-01-15T01:49:37.093Z,20.34
2017-01-15T01:50:36.830Z,20.25
2017-01-15T01:51:37.254Z,20.34
2017-01-15T01:52:36.815Z,20.43
2017-01-15T01:53:38.118Z,20.43
2017-01-15T01:54:37.326Z,20.34
2017-01-15T01:55:37.285Z,20.34
2017-01-15T01:56:36.898Z,20.54
2017-01-15T01:57:37.299Z,20.34
2017-01-15T01:58:37.259Z,20.24
2017-01-15T01:59:36.869Z,20.34
2017-01-15T02:00:36.879Z,20.24
2017-01-15T02:01:37.331Z,20.24
2017-01-15T02:02:37.338Z,20.24
2017-01-15T02:03:36.948Z,20.24
2017-01-15T02:04:37.809Z,20.34
2017-01-15T02:05:36.965Z,20.34
2017-01-15T02:06:37.502Z,20.14
2017-01-15T02:07:36.932Z,20.24
2017-01-15T02:08:37.333Z,20.34
2017-01-15T02:09:36.992Z,20.43
2017-01-15T02:10:37.399Z,20.53
2017-01-15T02:11:37.356Z,20.43
2017-01-15T02:12:37.463Z,20.53
2017-01-15T02:13:37.422Z,20.43
2017-01-15T02:14:36.983Z,20.43
2017-01-15T02:15:37.992Z,20.14
2017-01-15T02:16:37.048Z,20.14
2017-01-15T02:17:37.658Z,20.53
2017-01-15T02:18:37.115Z,20.24
2017-01-15T02:19:37.020Z,20.43
2017-01-15T02:20:37.027Z,20.14
2017-01-15T02:21:37.482Z,20.34
2017-01-15T02:22:37.439Z,20.43
2017-01-15T02:23:37.100Z,20.34
2017-01-15T02:24:37.456Z,20.62
2017-01-15T02:25:37.462Z,20.43
2017-01-15T02:26:38.228Z,20.62
2017-01-15T02:27:37.578Z,20.62
2017-01-15T02:28:37.892Z,20.53
2017-01-15T02:29:37.149Z,20.34
2017-01-15T02:30:37.502Z,20.43
2017-01-15T02:31:37.123Z,20.34
2017-01-15T02:32:37.616Z,20.44
2017-01-15T02:33:37.130Z,20.53
2017-01-15T02:34:37.586Z,20.53
2017-01-15T02:35:37.192Z,20.44
2017-01-15T02:36:37.153Z,20.62
2017-01-15T02:37:38.721Z,20.43
2017-01-15T02:38:37.219Z,20.53
2017-01-15T02:39:38.174Z,20.43
2017-01-15T02:40:37.681Z,20.62
2017-01-15T02:41:37.193Z,20.62
2017-01-15T02:42:37.197Z,20.53
2017-01-15T02:43:37.678Z,20.43
2017-01-15T02:44:37.607Z,20.34
2017-01-15T02:45:37.269Z,20.43
2017-01-15T02:46:37.276Z,20.54
2017-01-15T02:47:37.630Z,20.24
2017-01-15T02:48:38.615Z,20.25
2017-01-15T02:49:37.745Z,19.96
2017-01-15T02:50:37.261Z,20.15
2017-01-15T02:51:37.749Z,20.14
2017-01-15T02:52:37.668Z,20.14
2017-01-15T02:53:37.674Z,20.15
2017-01-15T02:54:37.683Z,20.06
2017-01-15T02:55:37.690Z,20.34
2017-01-15T02:56:37.779Z,20.34
2017-01-15T02:57:37.754Z,20.24
2017-01-15T02:58:37.717Z,20.43
2017-01-15T02:59:37.771Z,19.95
2017-01-15T03:00:37.730Z,20.24
2017-01-15T03:01:38.837Z,20.34
2017-01-15T03:02:37.845Z,20.24
2017-01-15T03:03:37.797Z,20.14
2017-01-15T03:04:37.808Z,20.14
2017-01-15T03:05:37.422Z,20.04
2017-01-15T03:06:37.424Z,20.14
2017-01-15T03:07:37.385Z,20.24
2017-01-15T03:08:37.395Z,20.04
2017-01-15T03:09:37.796Z,20.24
2017-01-15T03:10:37.407Z,20.04
2017-01-15T03:11:37.415Z,20.24
2017-01-15T03:12:37.425Z,20.04
2017-01-15T03:13:37.875Z,20.24
2017-01-15T03:14:37.885Z,19.95
2017-01-15T03:15:37.897Z,19.95
2017-01-15T03:16:37.851Z,19.85
2017-01-15T03:17:37.512Z,19.96
2017-01-15T03:18:37.519Z,20.06
2017-01-15T03:19:37.971Z,19.75
2017-01-15T03:20:37.896Z,20.06
2017-01-15T03:21:37.492Z,19.75
2017-01-15T03:22:37.552Z,19.75
2017-01-15T03:23:37.951Z,19.86
2017-01-15T03:24:37.961Z,19.95
2017-01-15T03:25:37.917Z,20.04
2017-01-15T03:26:37.925Z,20.04
2017-01-15T03:27:37.983Z,19.85
2017-01-15T03:28:37.593Z,19.86
2017-01-15T03:29:37.603Z,19.95
2017-01-15T03:30:38.003Z,20.04
2017-01-15T03:31:38.013Z,19.95
2017-01-15T03:32:37.674Z,19.95
2017-01-15T03:33:38.079Z,19.95
2017-01-15T03:34:37.590Z,20.04
2017-01-15T03:35:37.992Z,20.06
2017-01-15T03:36:37.655Z,19.86
2017-01-15T03:37:38.009Z,20.06
2017-01-15T03:38:38.064Z,20.15
2017-01-15T03:39:38.073Z,19.95
2017-01-15T03:40:37.633Z,20.06
2017-01-15T03:41:37.692Z,19.85
2017-01-15T03:42:38.044Z,20.15
2017-01-15T03:43:37.809Z,20.06
2017-01-15T03:44:37.663Z,19.75
2017-01-15T03:45:38.070Z,19.96
2017-01-15T03:46:37.728Z,19.95
2017-01-15T03:47:37.736Z,19.75
2017-01-15T03:48:37.744Z,19.86
2017-01-15T03:49:37.750Z,20.06
2017-01-15T03:50:37.707Z,19.76
2017-01-15T03:51:38.217Z,19.96
2017-01-15T03:52:38.116Z,19.85
2017-01-15T03:53:37.728Z,19.96
2017-01-15T03:54:38.238Z,20.04
2017-01-15T03:55:38.044Z,19.66
2017-01-15T03:56:38.202Z,19.86
2017-01-15T03:57:38.207Z,19.75
2017-01-15T03:58:37.823Z,19.85
2017-01-15T03:59:38.169Z,19.86
2017-01-15T04:00:37.882Z,19.75
2017-01-15T04:01:37.787Z,19.75
2017-01-15T04:02:37.797Z,20.34
2017-01-15T04:03:38.256Z,20.04
2017-01-15T04:04:38.257Z,19.95
2017-01-15T04:05:38.320Z,20.14
2017-01-15T04:06:37.924Z,19.95
2017-01-15T04:07:38.276Z,19.96
2017-01-15T04:08:37.840Z,20.15
2017-01-15T04:09:38.243Z,20.04
2017-01-15T04:10:38.354Z,19.76
2017-01-15T04:11:38.309Z,19.76
2017-01-15T04:12:38.317Z,19.46
2017-01-15T04:13:37.876Z,19.75
2017-01-15T04:14:38.331Z,19.86
2017-01-15T04:15:38.338Z,19.47
2017-01-15T04:16:38.499Z,19.57
2017-01-15T04:17:38.335Z,19.95
2017-01-15T04:18:38.315Z,19.76
2017-01-15T04:19:38.417Z,20.25
2017-01-15T04:20:37.932Z,20.25
2017-01-15T04:21:38.334Z,19.76
2017-01-15T04:22:37.997Z,19.47
2017-01-15T04:23:38.003Z,19.47
2017-01-15T04:24:38.406Z,20.25
2017-01-15T04:25:37.965Z,20.04
2017-01-15T04:26:38.420Z,19.75
2017-01-15T04:27:38.933Z,19.47
2017-01-15T04:28:38.383Z,19.46
2017-01-15T04:29:38.394Z,20.06
2017-01-15T04:30:38.354Z,19.46
2017-01-15T04:31:38.012Z,19.47
2017-01-15T04:32:38.070Z,19.67
2017-01-15T04:33:38.031Z,19.86
2017-01-15T04:34:38.479Z,19.76
2017-01-15T04:35:38.487Z,19.67
2017-01-15T04:36:38.448Z,19.38
2017-01-15T04:37:38.450Z,19.86
2017-01-15T04:38:39.168Z,19.76
2017-01-15T04:39:38.517Z,19.86
2017-01-15T04:40:38.174Z,19.86
2017-01-15T04:41:38.531Z,19.76
2017-01-15T04:42:38.489Z,19.76
2017-01-15T04:43:38.496Z,19.67
2017-01-15T04:44:38.557Z,19.85
2017-01-15T04:45:38.510Z,19.67
2017-01-15T04:46:38.574Z,19.57
2017-01-15T04:47:38.202Z,19.86
2017-01-15T04:48:38.136Z,19.96
2017-01-15T04:49:39.641Z,20.06
2017-01-15T04:50:38.154Z,19.57
2017-01-15T04:51:38.955Z,19.57
2017-01-15T04:52:38.169Z,19.86
2017-01-15T04:53:38.228Z,19.96
2017-01-15T04:54:38.627Z,19.67
2017-01-15T04:55:38.190Z,20.06
2017-01-15T04:56:38.592Z,19.76
2017-01-15T04:57:38.648Z,19.96
2017-01-15T04:58:38.607Z,19.57
2017-01-15T04:59:38.269Z,20.06
2017-01-15T05:00:38.673Z,19.86
2017-01-15T05:01:38.678Z,19.57
2017-01-15T05:02:39.100Z,19.67
2017-01-15T05:03:38.693Z,19.67
2017-01-15T05:04:38.254Z,19.76
2017-01-15T05:05:38.659Z,19.96
2017-01-15T05:06:38.320Z,19.86
2017-01-15T05:07:38.279Z,19.67
2017-01-15T05:08:38.285Z,19.67
2017-01-15T05:09:38.739Z,19.76
2017-01-15T05:10:38.748Z,20.06
2017-01-15T05:11:38.754Z,19.57
2017-01-15T05:12:38.711Z,19.47
2017-01-15T05:13:39.424Z,19.47
2017-01-15T05:14:38.774Z,19.76
2017-01-15T05:15:38.338Z,19.76
2017-01-15T05:16:38.398Z,19.67
2017-01-15T05:17:38.352Z,19.57
2017-01-15T05:18:38.406Z,20.06
2017-01-15T05:19:38.813Z,19.67
2017-01-15T05:20:38.374Z,19.76
2017-01-15T05:21:38.830Z,19.47
2017-01-15T05:22:38.389Z,20.06
2017-01-15T05:23:38.401Z,20.06
2017-01-15T05:24:39.968Z,19.67
2017-01-15T05:25:38.409Z,19.67
2017-01-15T05:26:38.420Z,19.67
2017-01-15T05:27:38.478Z,19.67
2017-01-15T05:28:38.853Z,19.76
2017-01-15T05:29:38.441Z,19.76
2017-01-15T05:30:38.846Z,19.47
2017-01-15T05:31:38.902Z,19.67
2017-01-15T05:32:38.858Z,19.67
2017-01-15T05:33:38.918Z,19.57
2017-01-15T05:34:38.527Z,19.47
2017-01-15T05:35:38.485Z,19.76
2017-01-15T05:36:38.495Z,19.67
2017-01-15T05:37:38.896Z,19.67
2017-01-15T05:38:38.559Z,19.67
2017-01-15T05:39:38.518Z,20.06
2017-01-15T05:40:38.919Z,19.67
2017-01-15T05:41:38.583Z,19.76
2017-01-15T05:42:38.984Z,19.57
2017-01-15T05:43:38.942Z,19.76
2017-01-15T05:44:38.948Z,19.96
2017-01-15T05:45:38.607Z,19.57
2017-01-15T05:46:39.030Z,19.67
2017-01-15T05:47:38.573Z,19.67
2017-01-15T05:48:38.582Z,19.57
2017-01-15T05:49:38.982Z,19.76
2017-01-15T05:50:38.597Z,19.57
2017-01-15T05:51:38.703Z,19.76
2017-01-15T05:52:39.008Z,19.57
2017-01-15T05:53:39.065Z,19.86
2017-01-15T05:54:39.121Z,19.86
2017-01-15T05:55:39.281Z,19.57
2017-01-15T05:56:38.691Z,19.09
2017-01-15T05:57:38.649Z,19.09
2017-01-15T05:58:39.150Z,18.99
2017-01-15T05:59:39.060Z,19.09
2017-01-15T06:00:38.672Z,19.18
2017-01-15T06:01:38.729Z,19.09
2017-01-15T06:02:39.134Z,18.99
2017-01-15T06:03:38.693Z,18.99
2017-01-15T06:04:39.153Z,18.99
2017-01-15T06:05:39.155Z,19.18
2017-01-15T06:06:39.710Z,19.09
2017-01-15T06:07:39.120Z,19.09
2017-01-15T06:08:39.127Z,19.18
2017-01-15T06:09:39.183Z,19.09
2017-01-15T06:10:39.142Z,18.99
2017-01-15T06:11:39.217Z,19.09
2017-01-15T06:12:38.811Z,19.09
2017-01-15T06:13:38.769Z,18.99
2017-01-15T06:14:38.776Z,19.57
2017-01-15T06:15:38.782Z,19.09
2017-01-15T06:16:39.291Z,19.09
2017-01-15T06:17:40.044Z,19.09
2017-01-15T06:18:38.857Z,19.09
2017-01-15T06:19:39.413Z,19.18
2017-01-15T06:20:38.906Z,18.99
2017-01-15T06:21:38.878Z,19.09
2017-01-15T06:22:38.886Z,19.09
2017-01-15T06:23:38.946Z,19.09
2017-01-15T06:24:39.247Z,18.99
2017-01-15T06:25:38.911Z,19.09
2017-01-15T06:26:39.262Z,18.99
2017-01-15T06:27:39.373Z,19.09
2017-01-15T06:28:40.034Z,18.99
2017-01-15T06:29:39.287Z,18.99
2017-01-15T06:30:39.744Z,19.38
2017-01-15T06:31:39.350Z,19.09
2017-01-15T06:32:39.310Z,19.09
2017-01-15T06:33:38.920Z,19.28
2017-01-15T06:34:39.372Z,19.18
2017-01-15T06:35:38.986Z,18.99
2017-01-15T06:36:39.442Z,19.09
2017-01-15T06:37:39.401Z,19.09
2017-01-15T06:38:39.406Z,19.09
2017-01-15T06:39:40.592Z,18.89
2017-01-15T06:40:39.025Z,18.99
2017-01-15T06:41:39.980Z,19.28
2017-01-15T06:42:39.383Z,19.28
2017-01-15T06:43:39.740Z,19.18
2017-01-15T06:44:39.499Z,19.28
2017-01-15T06:45:39.062Z,19.09
2017-01-15T06:46:39.019Z,19.09
2017-01-15T06:47:39.075Z,18.99
2017-01-15T06:48:39.429Z,19.09
2017-01-15T06:49:39.088Z,19.09
2017-01-15T06:50:39.495Z,18.99
2017-01-15T06:51:39.354Z,19.18
2017-01-15T06:52:40.559Z,19.47
2017-01-15T06:53:39.071Z,19.38
2017-01-15T06:54:39.526Z,19.09
2017-01-15T06:55:39.479Z,19.18
2017-01-15T06:56:39.092Z,19.28
2017-01-15T06:57:39.545Z,19.09
2017-01-15T06:58:39.103Z,19.28
2017-01-15T06:59:39.860Z,19.09
2017-01-15T07:00:39.172Z,19.09
2017-01-15T07:01:39.229Z,19.09
2017-01-15T07:02:39.584Z,19.18
2017-01-15T07:03:39.541Z,19.09
2017-01-15T07:04:39.549Z,19.09
2017-01-15T07:05:39.612Z,19.28
2017-01-15T07:06:39.611Z,19.09
2017-01-15T07:07:39.570Z,19.47
2017-01-15T07:08:39.627Z,19.38
2017-01-15T07:09:39.242Z,18.99
2017-01-15T07:10:40.393Z,19.38
2017-01-15T07:11:39.206Z,19.47
2017-01-15T07:12:39.658Z,19.47
2017-01-15T07:13:39.616Z,19.28
2017-01-15T07:14:39.226Z,19.09
2017-01-15T07:15:39.630Z,19.09
2017-01-15T07:16:39.638Z,19.38
2017-01-15T07:17:39.648Z,19.38
2017-01-15T07:18:39.306Z,19.09
2017-01-15T07:19:39.660Z,19.47
2017-01-15T07:20:39.666Z,19.47
2017-01-15T07:21:40.626Z,19.18
2017-01-15T07:22:39.733Z,19.38
2017-01-15T07:23:39.791Z,19.38
2017-01-15T07:24:39.696Z,19.38
2017-01-15T07:25:39.756Z,19.38
2017-01-15T07:26:39.366Z,19.28
2017-01-15T07:27:39.372Z,19.28
2017-01-15T07:28:39.331Z,19.28
2017-01-15T07:29:39.339Z,19.57
2017-01-15T07:30:39.348Z,19.47
2017-01-15T07:31:39.803Z,18.51
2017-01-15T07:32:40.523Z,18.79
2017-01-15T07:33:39.419Z,18.99
2017-01-15T07:34:40.525Z,19.09
2017-01-15T07:35:39.385Z,18.7
2017-01-15T07:36:39.788Z,19.09
2017-01-15T07:37:39.843Z,18.6
2017-01-15T07:38:39.802Z,18.7
2017-01-15T07:39:39.858Z,18.7
2017-01-15T07:40:39.422Z,18.9
2017-01-15T07:41:39.459Z,18.7
2017-01-15T07:42:39.931Z,18.79
2017-01-15T07:43:40.654Z,18.89
2017-01-15T07:44:39.846Z,18.79
2017-01-15T07:45:40.463Z,18.99
2017-01-15T07:46:39.465Z,18.7
2017-01-15T07:47:39.868Z,19.09
2017-01-15T07:48:39.483Z,18.99
2017-01-15T07:49:39.885Z,19.09
2017-01-15T07:50:39.595Z,18.89
2017-01-15T07:51:39.898Z,19.09
2017-01-15T07:52:39.509Z,19.09
2017-01-15T07:53:39.522Z,18.7
2017-01-15T07:54:39.575Z,18.99
2017-01-15T07:55:39.978Z,18.7
2017-01-15T07:56:40.787Z,18.79
2017-01-15T07:57:40.043Z,18.79
2017-01-15T07:58:39.604Z,18.51
2017-01-15T07:59:39.959Z,18.79
2017-01-15T08:00:40.018Z,18.99
2017-01-15T08:01:39.974Z,18.99
2017-01-15T08:02:40.081Z,19.28
2017-01-15T08:03:39.643Z,18.99
2017-01-15T08:04:39.997Z,18.7
2017-01-15T08:05:40.053Z,18.71
2017-01-15T08:06:40.062Z,18.79
2017-01-15T08:07:40.045Z,18.79
2017-01-15T08:08:39.629Z,18.7
2017-01-15T08:09:40.083Z,18.6
2017-01-15T08:10:39.644Z,18.79
2017-01-15T08:11:39.701Z,18.7
2017-01-15T08:12:40.106Z,18.99
2017-01-15T08:13:40.115Z,18.99
2017-01-15T08:14:39.726Z,19.38
2017-01-15T08:15:39.684Z,18.7
2017-01-15T08:16:40.046Z,18.6
2017-01-15T08:17:39.748Z,18.79
2017-01-15T08:18:40.102Z,18.99
2017-01-15T08:19:39.762Z,18.89
2017-01-15T08:20:40.116Z,18.9
2017-01-15T08:21:39.728Z,18.7
2017-01-15T08:22:40.180Z,18.71
2017-01-15T08:23:39.742Z,18.99
2017-01-15T08:24:40.145Z,18.99
2017-01-15T08:25:39.807Z,18.89
2017-01-15T08:26:39.817Z,18.89
2017-01-15T08:27:40.673Z,18.89
2017-01-15T08:28:40.227Z,18.9
2017-01-15T08:29:39.789Z,18.89
2017-01-15T08:30:40.192Z,18.9
2017-01-15T08:31:40.249Z,18.79
2017-01-15T08:32:39.861Z,18.79
2017-01-15T08:33:39.868Z,18.79
2017-01-15T08:34:40.225Z,18.89
2017-01-15T08:35:40.278Z,18.9
2017-01-15T08:36:40.288Z,18.8
2017-01-15T08:37:39.898Z,18.89
2017-01-15T08:38:41.157Z,18.79
2017-01-15T08:39:39.866Z,18.89
2017-01-15T08:40:40.519Z,18.89
2017-01-15T08:41:40.575Z,18.7
2017-01-15T08:42:39.934Z,18.99
2017-01-15T08:43:40.338Z,18.89
2017-01-15T08:44:40.297Z,18.89
2017-01-15T08:45:40.655Z,18.89
2017-01-15T08:46:40.365Z,19.09
2017-01-15T08:47:39.933Z,18.99
2017-01-15T08:48:40.380Z,19.38
2017-01-15T08:49:40.388Z,18.8
2017-01-15T08:50:40.446Z,18.89
2017-01-15T08:51:40.760Z,18.9
2017-01-15T08:52:39.964Z,18.71
2017-01-15T08:53:40.370Z,18.71
2017-01-15T08:54:40.031Z,18.71
2017-01-15T08:55:40.490Z,18.9
2017-01-15T08:56:39.999Z,18.8
2017-01-15T08:57:40.409Z,18.8
2017-01-15T08:58:40.414Z,18.61
2017-01-15T08:59:40.029Z,18.71
2017-01-15T09:00:40.531Z,18.61
2017-01-15T09:01:40.442Z,18.61
2017-01-15T09:02:41.598Z,18.61
2017-01-15T09:03:40.481Z,18.8
2017-01-15T09:04:40.471Z,18.8
2017-01-15T09:05:40.473Z,18.61
2017-01-15T09:06:40.091Z,18.41
2017-01-15T09:07:40.148Z,18.41
2017-01-15T09:08:40.501Z,18.41
2017-01-15T09:09:40.562Z,18.33
2017-01-15T09:10:40.618Z,18.13
2017-01-15T09:11:40.529Z,17.94
2017-01-15T09:12:40.193Z,18.13
2017-01-15T09:13:41.376Z,18.04
2017-01-15T09:14:40.213Z,18.33
2017-01-15T09:15:40.173Z,18.13
2017-01-15T09:16:40.234Z,18.23
2017-01-15T09:17:40.590Z,18.04
2017-01-15T09:18:40.650Z,18.33
2017-01-15T09:19:40.212Z,18.33
2017-01-15T09:20:40.634Z,17.94
2017-01-15T09:21:40.629Z,18.33
2017-01-15T09:22:40.276Z,18.23
2017-01-15T09:23:40.353Z,18.13
2017-01-15T09:24:41.681Z,17.94
2017-01-15T09:25:40.669Z,18.23
2017-01-15T09:26:40.334Z,18.13
2017-01-15T09:27:40.744Z,18.23
2017-01-15T09:28:40.700Z,18.43
2017-01-15T09:29:40.710Z,18.33
2017-01-15T09:30:40.323Z,18.24
2017-01-15T09:31:40.386Z,18.05
2017-01-15T09:32:40.346Z,18.13
2017-01-15T09:33:40.852Z,18.05
2017-01-15T09:34:40.763Z,17.85
2017-01-15T09:35:40.477Z,18.23
2017-01-15T09:36:40.781Z,18.24
2017-01-15T09:37:40.842Z,18.04
2017-01-15T09:38:40.805Z,18.05
2017-01-15T09:39:40.814Z,18.15
2017-01-15T09:40:40.480Z,18.15
2017-01-15T09:41:40.882Z,18.15
2017-01-15T09:42:40.894Z,17.74
2017-01-15T09:43:40.903Z,18.33
2017-01-15T09:44:41.160Z,18.23
2017-01-15T09:45:40.474Z,18.13
2017-01-15T09:46:40.934Z,18.23
2017-01-15T09:47:40.889Z,18.51
2017-01-15T09:48:40.897Z,18.22
2017-01-15T09:49:40.909Z,18.33
2017-01-15T09:50:40.524Z,18.51
2017-01-15T09:51:40.973Z,18.41
2017-01-15T09:52:40.537Z,18.71
2017-01-15T09:53:40.994Z,18.61
2017-01-15T09:54:40.952Z,18.61
2017-01-15T09:55:41.062Z,18.61
2017-01-15T09:56:40.572Z,18.71
2017-01-15T09:57:40.780Z,18.9
2017-01-15T09:58:40.988Z,18.61
2017-01-15T09:59:41.062Z,18.8
2017-01-15T10:00:40.607Z,18.9
2017-01-15T10:01:41.061Z,18.9
2017-01-15T10:02:41.018Z,18.9
2017-01-15T10:03:41.031Z,19
2017-01-15T10:04:41.034Z,18.9
2017-01-15T10:05:41.045Z,18.71
2017-01-15T10:06:41.857Z,18.61
2017-01-15T10:07:41.112Z,18.51
2017-01-15T10:08:41.174Z,18.61
2017-01-15T10:09:41.128Z,18.71
2017-01-15T10:10:40.996Z,18.61
2017-01-15T10:11:41.196Z,18.8
2017-01-15T10:12:40.705Z,18.8
2017-01-15T10:13:40.731Z,18.8
2017-01-15T10:14:40.781Z,18.71
2017-01-15T10:15:40.791Z,18.32
2017-01-15T10:16:41.239Z,18.32
2017-01-15T10:17:42.248Z,18.51
2017-01-15T10:18:41.205Z,19
2017-01-15T10:19:41.664Z,18.9
2017-01-15T10:20:40.824Z,19.19
2017-01-15T10:21:41.182Z,18.9
2017-01-15T10:22:41.193Z,18.99
2017-01-15T10:23:41.293Z,19
2017-01-15T10:24:41.200Z,18.71
2017-01-15T10:25:40.920Z,19
2017-01-15T10:26:40.821Z,18.9
2017-01-15T10:27:41.225Z,19
2017-01-15T10:28:40.888Z,19
2017-01-15T10:29:40.847Z,18.89
2017-01-15T10:30:40.854Z,18.79
2017-01-15T10:31:41.309Z,18.99
2017-01-15T10:32:41.316Z,18.79
2017-01-15T10:33:40.929Z,18.89
2017-01-15T10:34:40.937Z,18.9
2017-01-15T10:35:41.292Z,18.9
2017-01-15T10:36:40.954Z,18.8
2017-01-15T10:37:40.942Z,18.89
2017-01-15T10:38:41.364Z,18.89
2017-01-15T10:39:41.329Z,18.89
2017-01-15T10:40:41.334Z,18.9
2017-01-15T10:41:40.942Z,18.79
2017-01-15T10:42:41.400Z,18.7
2017-01-15T10:43:41.356Z,18.9
2017-01-15T10:44:40.967Z,18.99
2017-01-15T10:45:41.420Z,18.7
2017-01-15T10:46:41.385Z,18.7
2017-01-15T10:47:40.995Z,18.79
2017-01-15T10:48:41.050Z,18.79
2017-01-15T10:49:41.006Z,18.7
2017-01-15T10:50:41.461Z,18.89
2017-01-15T10:51:41.519Z,18.79
2017-01-15T10:52:41.427Z,18.89
2017-01-15T10:53:41.090Z,18.89
2017-01-15T10:54:41.441Z,18.79
2017-01-15T10:55:41.450Z,18.7
2017-01-15T10:56:41.112Z,18.7
2017-01-15T10:57:41.519Z,19.09
2017-01-15T10:58:41.523Z,19.28
2017-01-15T10:59:41.136Z,19.47
2017-01-15T11:00:41.197Z,19.28
2017-01-15T11:01:41.557Z,19.28
2017-01-15T11:02:41.504Z,19.09
2017-01-15T11:03:41.120Z,19.47
2017-01-15T11:04:41.572Z,19.09
2017-01-15T11:05:41.534Z,19.09
2017-01-15T11:06:41.192Z,19.09
2017-01-15T11:07:41.545Z,19.09
2017-01-15T11:08:41.211Z,19.46
2017-01-15T11:09:41.264Z,19.37
2017-01-15T11:10:41.617Z,19.07
2017-01-15T11:11:41.182Z,19.17
2017-01-15T11:12:42.136Z,19.56
2017-01-15T11:13:41.696Z,19.07
2017-01-15T11:14:41.648Z,19.07
2017-01-15T11:15:41.212Z,19.56
2017-01-15T11:16:41.220Z,18.88
2017-01-15T11:17:41.674Z,19.27
2017-01-15T11:18:41.632Z,19.07
2017-01-15T11:19:41.689Z,19.07
2017-01-15T11:20:41.303Z,19.07
2017-01-15T11:21:41.655Z,19.37
2017-01-15T11:22:41.666Z,19.66
2017-01-15T11:23:42.521Z,19.27
2017-01-15T11:24:41.330Z,19.37
2017-01-15T11:25:41.814Z,19.56
2017-01-15T11:26:41.346Z,19.37
2017-01-15T11:27:41.303Z,19.37
2017-01-15T11:28:41.709Z,19.07
2017-01-15T11:29:41.719Z,19.07
2017-01-15T11:30:41.328Z,19.37
2017-01-15T11:31:41.730Z,19.27
2017-01-15T11:32:41.790Z,19.07
2017-01-15T11:33:41.745Z,19.07
2017-01-15T11:34:41.359Z,19.66
2017-01-15T11:35:41.488Z,19.56
2017-01-15T11:36:41.774Z,19.66
2017-01-15T11:37:41.381Z,19.56
2017-01-15T11:38:41.789Z,19.37
2017-01-15T11:39:41.841Z,19.56
2017-01-15T11:40:41.799Z,19.66
2017-01-15T11:41:41.857Z,19.56
2017-01-15T11:42:41.480Z,19.27
2017-01-15T11:43:41.821Z,18.98
2017-01-15T11:44:41.831Z,19.07
2017-01-15T11:45:41.441Z,19.56
2017-01-15T11:46:41.896Z,19.66
2017-01-15T11:47:42.555Z,19.17
2017-01-15T11:48:41.464Z,19.66
2017-01-15T11:49:41.467Z,18.98
2017-01-15T11:50:41.532Z,19.27
2017-01-15T11:51:41.982Z,19.37
2017-01-15T11:52:42.190Z,19.07
2017-01-15T11:53:41.947Z,19.07
2017-01-15T11:54:41.907Z,19.07
2017-01-15T11:55:41.960Z,19.07
2017-01-15T11:56:41.973Z,19.27
2017-01-15T11:57:41.977Z,19.17
2017-01-15T11:58:43.102Z,19.75
2017-01-15T11:59:41.942Z,19.07
2017-01-15T12:00:41.555Z,18.98
2017-01-15T12:01:41.958Z,18.98
2017-01-15T12:02:42.014Z,19.66
2017-01-15T12:03:41.628Z,19.66
2017-01-15T12:04:41.585Z,19.75
2017-01-15T12:05:41.641Z,19.56
2017-01-15T12:06:41.992Z,20.04
2017-01-15T12:07:41.656Z,19.75
2017-01-15T12:08:41.614Z,19.66
2017-01-15T12:09:42.017Z,19.66
2017-01-15T12:10:42.076Z,19.85
2017-01-15T12:11:41.738Z,20.04
2017-01-15T12:12:41.947Z,19.66
2017-01-15T12:13:41.654Z,19.75
2017-01-15T12:14:41.711Z,19.74
2017-01-15T12:15:42.066Z,19.65
2017-01-15T12:16:42.071Z,19.65
2017-01-15T12:17:42.081Z,20.03
2017-01-15T12:18:41.893Z,20.04
2017-01-15T12:19:42.095Z,19.74
2017-01-15T12:20:42.151Z,19.65
2017-01-15T12:21:41.766Z,19.84
2017-01-15T12:22:41.770Z,19.84
2017-01-15T12:23:42.175Z,19.45
2017-01-15T12:24:42.231Z,19.85
2017-01-15T12:25:42.190Z,19.74
2017-01-15T12:26:42.146Z,19.84
2017-01-15T12:27:42.203Z,19.74
2017-01-15T12:28:42.211Z,19.84
2017-01-15T12:29:42.172Z,19.84
2017-01-15T12:30:42.175Z,19.84
2017-01-15T12:31:42.341Z,19.74
2017-01-15T12:32:41.796Z,20.03
2017-01-15T12:33:41.904Z,19.45
2017-01-15T12:34:41.861Z,20.23
2017-01-15T12:35:42.311Z,19.84
2017-01-15T12:36:41.874Z,19.45
2017-01-15T12:37:42.329Z,19.84
2017-01-15T12:38:42.237Z,20.13
2017-01-15T12:39:42.294Z,19.84
2017-01-15T12:40:43.140Z,20.23
2017-01-15T12:41:42.309Z,19.45
2017-01-15T12:42:42.963Z,19.84
2017-01-15T12:43:41.924Z,19.74
2017-01-15T12:44:42.382Z,19.74
2017-01-15T12:45:42.339Z,19.55
2017-01-15T12:46:42.345Z,19.35
2017-01-15T12:47:41.960Z,20.03
2017-01-15T12:48:41.917Z,19.94
2017-01-15T12:49:42.020Z,19.74
2017-01-15T12:50:41.980Z,19.84
2017-01-15T12:51:41.984Z,19.84
2017-01-15T12:52:42.341Z,19.84
2017-01-15T12:53:42.001Z,19.65
2017-01-15T12:54:42.455Z,19.65